KOLV

Olive Branch Airport

Olive Branch, Mississippi, USA
METAR KOLV 222350Z 00000KT 10SM FEW060 BKN150 OVC250 21/21 A2999
Observed Flight Rules
May-22 @ 23:50 UTC (an hour ago) Visual Flight Rules
Visibility Clouds
10 miles
  • Few at 6,000' AGL
  • Broken at 15,000' AGL
  • Overcast at 25,000' AGL
Temperatures Readings
Current 21°C / 70°F
Dewpoint 21°C / 70°F
Humidity 100%
Altimeter 29.99" Hg
Pressure 1016 hPa
Elevation 122
METAR KOLV 222350Z 00000KT 10SM FEW060 BKN150 OVC250 21/21 A2999
Observed Flight Rules
May-22 @ 23:50 UTC
(an hour ago)
VFR
Clouds
  • Few at 6,000' AGL
  • Broken at 15,000' AGL
  • Overcast at 25,000' AGL
Temperature Dewpoint
21°C / 70°F 21°C / 70°F
Humidity Altimeter Pressure
100% 29.99" Hg 1016 hPa